createdAt,value
2023-11-24T00:00:12.781Z,16.20
2023-11-24T00:03:01.261Z,14.50
2023-11-24T00:05:29.805Z,14.60
2023-11-24T00:07:58.492Z,16.40
2023-11-24T00:10:30.002Z,13.70
2023-11-24T00:12:58.571Z,16.00
2023-11-24T00:15:28.792Z,16.80
2023-11-24T00:17:58.279Z,16.40
2023-11-24T00:20:27.344Z,15.30
2023-11-24T00:22:57.154Z,16.40
2023-11-24T00:25:25.549Z,16.30
2023-11-24T00:27:56.105Z,15.40
2023-11-24T00:30:24.575Z,15.50
2023-11-24T00:32:53.025Z,17.50
2023-11-24T00:35:22.509Z,17.10
2023-11-24T00:37:51.024Z,18.90
2023-11-24T00:40:19.823Z,15.70
2023-11-24T00:42:48.101Z,16.60
2023-11-24T00:45:17.896Z,20.20
2023-11-24T00:47:46.488Z,17.10
2023-11-24T00:50:15.573Z,17.20
2023-11-24T00:52:44.300Z,17.50
2023-11-24T00:55:12.661Z,17.90
2023-11-24T00:57:40.925Z,16.00
2023-11-24T01:00:10.242Z,18.30
2023-11-24T01:02:40.070Z,18.00
2023-11-24T01:05:10.960Z,22.00
2023-11-24T01:07:39.487Z,18.40
2023-11-24T01:10:10.497Z,16.20
2023-11-24T01:12:40.151Z,17.40
2023-11-24T01:15:10.225Z,21.10
2023-11-24T01:17:38.469Z,15.40
2023-11-24T01:20:11.240Z,16.90
2023-11-24T01:22:40.111Z,17.60
2023-11-24T01:25:09.447Z,15.30
2023-11-24T01:27:37.803Z,18.40
2023-11-24T01:30:09.059Z,15.50
2023-11-24T01:32:37.921Z,17.50
2023-11-24T01:35:07.081Z,15.00
2023-11-24T01:37:35.348Z,15.20
2023-11-24T01:40:07.332Z,16.80
2023-11-24T01:42:38.836Z,12.80
2023-11-24T01:45:11.531Z,15.70
2023-11-24T01:47:40.432Z,14.80
2023-11-24T01:50:11.396Z,18.30
2023-11-24T01:52:41.090Z,14.90
2023-11-24T01:55:14.417Z,15.20
2023-11-24T01:57:43.879Z,15.20
2023-11-24T02:00:14.904Z,16.70
2023-11-24T02:02:44.127Z,20.50
2023-11-24T02:05:13.557Z,11.70
2023-11-24T02:07:45.701Z,13.60
2023-11-24T02:10:16.153Z,17.90
2023-11-24T02:12:44.547Z,13.70
2023-11-24T02:15:13.813Z,17.40
2023-11-24T02:17:42.432Z,17.00
2023-11-24T02:20:16.674Z,13.20
2023-11-24T02:22:45.386Z,17.60
2023-11-24T02:25:14.930Z,14.10
2023-11-24T02:27:43.372Z,16.00
2023-11-24T02:30:13.068Z,16.90
2023-11-24T02:32:41.520Z,15.30
2023-11-24T02:35:11.096Z,14.50
2023-11-24T02:37:40.169Z,15.50
2023-11-24T02:40:09.911Z,15.60
2023-11-24T02:42:38.184Z,12.20
2023-11-24T02:45:07.667Z,15.90
2023-11-24T02:47:36.543Z,12.70
2023-11-24T02:50:05.857Z,14.90
2023-11-24T02:52:34.334Z,15.50
2023-11-24T02:55:03.402Z,14.80
2023-11-24T02:57:32.132Z,12.20
2023-11-24T03:00:00.705Z,13.20
2023-11-24T03:02:29.738Z,14.60
2023-11-24T03:04:58.422Z,11.60
2023-11-24T03:07:28.012Z,14.60
2023-11-24T03:09:56.497Z,13.60
2023-11-24T03:12:24.883Z,14.90
2023-11-24T03:14:55.303Z,14.20
2023-11-24T03:17:23.970Z,14.50
2023-11-24T03:19:52.342Z,11.00
2023-11-24T03:22:21.644Z,12.30
2023-11-24T03:24:50.180Z,12.80
2023-11-24T03:27:18.395Z,11.30
2023-11-24T03:29:46.727Z,12.30
2023-11-24T03:32:15.874Z,11.60
2023-11-24T03:34:44.186Z,11.10
2023-11-24T03:37:12.836Z,13.50
2023-11-24T03:39:41.327Z,15.20
2023-11-24T03:42:09.808Z,10.70
2023-11-24T03:44:39.818Z,12.50
2023-11-24T03:47:08.192Z,11.90
2023-11-24T03:49:37.189Z,11.20
2023-11-24T03:52:06.116Z,12.60
2023-11-24T03:54:35.196Z,10.50
2023-11-24T03:57:04.099Z,11.20
2023-11-24T03:59:32.346Z,12.30
2023-11-24T04:02:00.624Z,14.90
2023-11-24T04:04:30.320Z,11.70
2023-11-24T04:06:59.343Z,12.70
2023-11-24T04:09:27.843Z,13.50
2023-11-24T04:11:56.388Z,11.30
2023-11-24T04:14:24.786Z,10.40
2023-11-24T04:16:53.093Z,11.90
2023-11-24T04:19:22.079Z,11.00
2023-11-24T04:21:50.438Z,13.10
2023-11-24T04:24:19.409Z,14.00
2023-11-24T04:26:47.689Z,13.70
2023-11-24T04:29:17.220Z,11.90
2023-11-24T04:31:45.878Z,12.10
2023-11-24T04:34:14.346Z,12.20
2023-11-24T04:36:42.558Z,14.30
2023-11-24T04:39:11.021Z,11.50
2023-11-24T04:41:39.294Z,11.10
2023-11-24T04:44:07.570Z,14.40
2023-11-24T04:46:35.917Z,10.90
2023-11-24T04:49:05.246Z,9.90
2023-11-24T04:51:33.658Z,14.20
2023-11-24T04:54:05.002Z,13.40
2023-11-24T04:56:33.351Z,10.80
2023-11-24T04:59:02.139Z,11.70
2023-11-24T05:01:30.894Z,12.00
2023-11-24T05:04:01.040Z,10.30
2023-11-24T05:06:29.575Z,19.50
2023-11-24T05:08:58.023Z,10.80
2023-11-24T05:11:27.520Z,13.40
2023-11-24T05:13:56.093Z,14.10
2023-11-24T05:16:24.534Z,8.90
2023-11-24T05:18:53.900Z,12.00
2023-11-24T05:21:22.265Z,11.80
2023-11-24T05:23:50.813Z,9.50
2023-11-24T05:26:19.122Z,9.40
2023-11-24T05:28:47.404Z,9.40
2023-11-24T05:31:15.969Z,14.40
2023-11-24T05:33:44.524Z,11.60
2023-11-24T05:36:12.843Z,9.20
2023-11-24T05:38:41.118Z,13.20
2023-11-24T05:41:09.914Z,9.70
2023-11-24T05:43:40.121Z,9.10
2023-11-24T05:46:08.673Z,11.30
2023-11-24T05:48:37.427Z,10.50
2023-11-24T05:51:06.705Z,9.30
2023-11-24T05:53:36.301Z,13.60
2023-11-24T05:56:09.540Z,9.00
2023-11-24T05:58:37.881Z,9.80
2023-11-24T06:01:06.290Z,9.50
2023-11-24T06:03:34.696Z,9.90
2023-11-24T06:06:03.238Z,8.10
2023-11-24T06:08:32.717Z,9.10
2023-11-24T06:11:01.116Z,11.10
2023-11-24T06:13:29.582Z,11.30
2023-11-24T06:15:58.339Z,8.60
2023-11-24T06:18:29.870Z,11.30
2023-11-24T06:20:58.198Z,10.40
2023-11-24T06:23:26.483Z,10.50
2023-11-24T06:25:54.858Z,8.20
2023-11-24T06:28:23.334Z,8.50
2023-11-24T06:30:51.714Z,11.30
2023-11-24T06:33:20.221Z,8.80
2023-11-24T06:35:48.492Z,13.70
2023-11-24T06:38:16.817Z,8.00
2023-11-24T06:40:45.430Z,7.70
2023-11-24T06:43:38.580Z,6.00
2023-11-24T06:46:07.104Z,7.30
2023-11-24T06:48:39.525Z,7.80
2023-11-24T06:51:08.760Z,6.60
2023-11-24T06:53:37.239Z,7.40
2023-11-24T06:56:06.014Z,7.70
2023-11-24T07:09:28.834Z,7.00
2023-11-24T07:11:57.113Z,7.90
2023-11-24T07:14:25.395Z,19.10
2023-11-24T07:16:54.103Z,8.00
2023-11-24T07:19:23.352Z,8.30
2023-11-24T07:21:51.837Z,10.40
2023-11-24T07:24:20.240Z,9.70
2023-11-24T07:26:48.917Z,9.20
2023-11-24T07:29:17.603Z,8.20
2023-11-24T07:31:46.693Z,10.10
2023-11-24T07:34:15.147Z,13.90
2023-11-24T07:36:44.117Z,15.80
2023-11-24T07:39:12.638Z,8.20
2023-11-24T07:41:41.240Z,9.30
2023-11-24T07:44:10.274Z,11.10
2023-11-24T07:47:07.076Z,11.70
2023-11-24T07:49:35.638Z,8.30
2023-11-24T07:52:06.356Z,8.20
2023-11-24T07:54:34.907Z,7.50
2023-11-24T07:57:03.565Z,16.30
2023-11-24T07:59:32.140Z,20.50
2023-11-24T08:02:00.482Z,24.80
2023-11-24T08:04:29.588Z,274.30
2023-11-24T08:06:58.187Z,145.80
2023-11-24T08:09:27.026Z,132.90
2023-11-24T08:11:56.601Z,244.40
2023-11-24T08:14:25.512Z,41.60
2023-11-24T08:16:54.330Z,17.80
2023-11-24T08:19:27.129Z,10.10
2023-11-24T08:21:55.569Z,8.80
2023-11-24T08:24:23.918Z,8.70
2023-11-24T08:26:52.788Z,10.00
2023-11-24T08:29:21.598Z,10.40
2023-11-24T08:31:51.310Z,8.70
2023-11-24T08:34:20.690Z,8.30
2023-11-24T08:36:49.092Z,8.10
2023-11-24T08:39:19.312Z,8.30
2023-11-24T08:41:50.865Z,8.60
2023-11-24T08:44:27.851Z,8.50
2023-11-24T08:46:56.471Z,9.20
2023-11-24T08:49:24.634Z,8.10
2023-11-24T08:51:53.345Z,9.30
2023-11-24T08:54:23.855Z,13.50
2023-11-24T08:56:52.213Z,11.70
2023-11-24T08:59:20.794Z,11.20
2023-11-24T09:01:50.931Z,13.10
2023-11-24T09:04:20.795Z,7.50
2023-11-24T09:06:49.734Z,7.60
2023-11-24T09:09:18.285Z,7.40
2023-11-24T09:11:48.244Z,13.60
2023-11-24T09:14:16.712Z,8.70
2023-11-24T09:16:45.173Z,6.20
2023-11-24T09:19:13.831Z,9.80
2023-11-24T09:21:42.462Z,12.10
2023-11-24T09:24:13.290Z,15.20
2023-11-24T09:26:44.569Z,15.60
2023-11-24T09:29:13.338Z,6.80
2023-11-24T09:31:43.430Z,6.40
2023-11-24T09:34:11.967Z,7.80
2023-11-24T09:36:43.781Z,6.60
2023-11-24T09:39:12.655Z,5.80
2023-11-24T09:41:41.696Z,8.60
2023-11-24T09:44:11.688Z,7.10
2023-11-24T09:46:49.262Z,6.50
2023-11-24T09:49:22.145Z,7.20
2023-11-24T09:56:47.968Z,9.10
2023-11-24T09:59:16.892Z,7.90
2023-11-24T10:01:48.956Z,7.40
2023-11-24T10:04:17.241Z,7.40
2023-11-24T10:06:46.733Z,8.20
2023-11-24T10:09:23.718Z,7.60
2023-11-24T10:11:52.294Z,8.00
2023-11-24T10:14:23.278Z,8.50
2023-11-24T10:16:51.759Z,8.80
2023-11-24T10:19:23.459Z,7.90
2023-11-24T10:21:56.395Z,9.40
2023-11-24T10:24:26.766Z,8.00
2023-11-24T10:26:55.370Z,6.10
2023-11-24T10:29:29.585Z,8.70
2023-11-24T10:31:58.169Z,8.30
2023-11-24T10:34:27.657Z,8.10
2023-11-24T10:41:56.188Z,6.70
2023-11-24T10:44:26.412Z,6.90
2023-11-24T10:47:01.848Z,6.10
2023-11-24T10:49:41.531Z,9.00
2023-11-24T10:52:33.946Z,7.70
2023-11-24T10:55:10.148Z,9.90
2023-11-24T10:57:40.865Z,7.00
2023-11-24T11:00:10.181Z,8.10
2023-11-24T11:02:41.840Z,8.30
2023-11-24T11:05:28.098Z,7.70
2023-11-24T11:08:29.507Z,8.70
2023-11-24T11:11:14.032Z,9.80
2023-11-24T11:13:44.620Z,8.80
2023-11-24T11:16:16.754Z,8.80
2023-11-24T11:18:45.353Z,8.50
2023-11-24T11:21:33.036Z,6.20
2023-11-24T11:24:11.842Z,12.80
2023-11-24T11:26:50.292Z,8.90
2023-11-24T11:29:25.732Z,10.90
2023-11-24T11:31:57.230Z,10.30
2023-11-24T11:34:31.583Z,10.10
2023-11-24T11:37:21.404Z,8.90
2023-11-24T11:39:59.459Z,8.80
2023-11-24T11:42:51.540Z,12.40
2023-11-24T11:45:26.184Z,58.40
2023-11-24T11:47:54.633Z,44.40
2023-11-24T11:50:25.938Z,61.00
2023-11-24T11:52:59.231Z,40.50
2023-11-24T11:55:30.509Z,11.90
2023-11-24T11:58:01.916Z,11.40
2023-11-24T12:00:31.569Z,25.60
2023-11-24T12:05:29.025Z,26.70
2023-11-24T12:07:59.904Z,46.30
2023-11-24T12:10:31.461Z,37.20
2023-11-24T12:13:06.061Z,37.70
2023-11-24T12:15:35.908Z,39.80
2023-11-24T12:18:06.860Z,24.70
2023-11-24T12:20:38.024Z,29.70
2023-11-24T12:23:09.280Z,31.30
2023-11-24T12:25:40.912Z,45.10
2023-11-24T12:28:11.649Z,28.40
2023-11-24T12:30:44.486Z,33.50
2023-11-24T12:33:13.184Z,27.90
2023-11-24T12:35:56.362Z,37.60
2023-11-24T12:38:25.258Z,15.50
2023-11-24T12:40:53.849Z,20.40
2023-11-24T12:43:25.528Z,28.70
2023-11-24T12:45:54.119Z,16.80
2023-11-24T12:48:26.766Z,14.00
2023-11-24T12:50:59.790Z,19.50
2023-11-24T12:53:30.174Z,15.00
2023-11-24T12:55:59.091Z,16.20
2023-11-24T12:58:27.706Z,15.80
2023-11-24T13:00:58.549Z,18.90
2023-11-24T13:03:27.990Z,40.40
2023-11-24T13:05:56.479Z,20.40
2023-11-24T13:08:24.957Z,24.90
2023-11-24T13:10:55.067Z,21.70
2023-11-24T13:13:23.549Z,23.40
2023-11-24T13:15:53.663Z,19.10
2023-11-24T13:18:22.660Z,18.40
2023-11-24T13:20:51.559Z,16.10
2023-11-24T13:23:20.144Z,21.10
2023-11-24T13:25:48.723Z,20.70
2023-11-24T13:28:17.256Z,25.30
2023-11-24T13:30:46.156Z,18.70
2023-11-24T13:33:16.496Z,16.40
2023-11-24T13:35:45.930Z,20.80
2023-11-24T13:38:15.948Z,21.80
2023-11-24T13:43:15.687Z,22.00
2023-11-24T13:45:44.158Z,22.20
2023-11-24T13:48:13.982Z,22.80
2023-11-24T13:53:13.372Z,19.30
2023-11-24T13:55:45.132Z,21.10
2023-11-24T13:58:14.484Z,24.00
2023-11-24T14:00:43.281Z,19.10
2023-11-24T14:03:11.756Z,18.90
2023-11-24T14:05:41.221Z,13.20
2023-11-24T14:08:10.845Z,12.40
2023-11-24T14:10:39.314Z,12.40
2023-11-24T14:13:07.688Z,14.30
2023-11-24T14:15:36.170Z,12.20
2023-11-24T14:18:08.242Z,12.40
2023-11-24T14:20:38.048Z,12.40
2023-11-24T14:25:35.522Z,11.70
2023-11-24T14:28:05.254Z,14.80
2023-11-24T14:30:35.862Z,20.80
2023-11-24T14:33:04.670Z,15.80
2023-11-24T14:35:33.339Z,16.10
2023-11-24T14:38:02.858Z,16.70
2023-11-24T14:40:31.180Z,23.10
2023-11-24T14:43:00.037Z,32.80
2023-11-24T14:45:28.283Z,22.60
2023-11-24T14:47:56.577Z,26.90
2023-11-24T14:50:27.910Z,38.40
2023-11-24T14:52:56.501Z,35.70
2023-11-24T14:55:25.015Z,28.00
2023-11-24T14:57:53.481Z,33.60
2023-11-24T15:00:32.256Z,23.80
2023-11-24T15:03:16.022Z,20.90
2023-11-24T15:05:53.643Z,110.90
2023-11-24T15:08:22.105Z,65.80
2023-11-24T15:10:50.884Z,56.50
2023-11-24T15:13:26.092Z,78.50
2023-11-24T15:15:54.518Z,59.40
2023-11-24T15:18:22.884Z,58.10
2023-11-24T15:20:54.995Z,41.00
2023-11-24T15:23:26.823Z,38.60
2023-11-24T15:25:55.874Z,40.70
2023-11-24T15:28:25.229Z,48.10
2023-11-24T15:30:55.096Z,37.40
2023-11-24T15:33:24.185Z,38.30
2023-11-24T15:35:53.572Z,35.00
2023-11-24T15:38:23.339Z,38.60
2023-11-24T15:40:52.955Z,39.50
2023-11-24T15:43:22.839Z,86.10
2023-11-24T15:45:56.847Z,73.20
2023-11-24T15:48:27.296Z,83.40
2023-11-24T15:50:59.357Z,93.00
2023-11-24T15:53:28.673Z,88.10
2023-11-24T15:55:59.384Z,92.90
2023-11-24T15:58:28.499Z,43.20
2023-11-24T16:00:58.494Z,35.10
2023-11-24T16:03:27.348Z,46.30
2023-11-24T16:06:01.317Z,31.70
2023-11-24T16:08:34.577Z,28.50
2023-11-24T16:11:11.394Z,26.40
2023-11-24T16:13:45.971Z,23.80
2023-11-24T16:16:15.705Z,19.70
2023-11-24T16:18:45.903Z,26.20
2023-11-24T16:21:14.784Z,17.30
2023-11-24T16:23:43.407Z,19.90
2023-11-24T16:26:11.892Z,16.90
2023-11-24T16:28:41.499Z,21.20
2023-11-24T16:31:10.313Z,24.20
2023-11-24T16:33:40.192Z,25.50
2023-11-24T16:36:11.078Z,22.40
2023-11-24T16:38:43.113Z,16.20
2023-11-24T16:41:16.034Z,15.80
2023-11-24T16:43:44.389Z,23.50
2023-11-24T16:46:12.881Z,21.40
2023-11-24T16:48:41.885Z,17.30
2023-11-24T16:51:10.726Z,22.00
2023-11-24T16:53:42.275Z,17.70
2023-11-24T16:56:10.960Z,17.60
2023-11-24T16:58:39.342Z,17.90
2023-11-24T17:01:07.955Z,23.80
2023-11-24T17:03:38.899Z,24.40
2023-11-24T17:06:09.003Z,29.80
2023-11-24T17:08:40.746Z,44.70
2023-11-24T17:11:12.365Z,81.90
2023-11-24T17:13:40.996Z,43.60
2023-11-24T17:16:11.398Z,28.30
2023-11-24T17:18:40.207Z,31.80
2023-11-24T17:21:09.684Z,30.80
2023-11-24T17:23:42.392Z,22.90
2023-11-24T17:26:11.549Z,19.30
2023-11-24T17:28:40.295Z,20.20
2023-11-24T17:31:09.600Z,19.30
2023-11-24T17:33:39.303Z,25.20
2023-11-24T17:36:09.594Z,40.10
2023-11-24T17:38:38.191Z,16.90
2023-11-24T17:41:07.424Z,20.10
2023-11-24T17:43:35.784Z,24.90
2023-11-24T17:46:07.741Z,24.60
2023-11-24T17:48:37.136Z,30.60
2023-11-24T17:51:06.773Z,20.10
2023-11-24T17:53:37.035Z,14.40
2023-11-24T17:56:06.160Z,20.20
2023-11-24T17:58:35.093Z,14.80
2023-11-24T18:01:03.596Z,39.70
2023-11-24T18:03:34.088Z,15.00
2023-11-24T18:06:03.599Z,13.80
2023-11-24T18:08:35.385Z,29.60
2023-11-24T18:11:06.277Z,24.20
2023-11-24T18:13:34.813Z,24.10
2023-11-24T18:16:04.685Z,18.60
2023-11-24T18:21:02.456Z,17.40
2023-11-24T18:23:32.516Z,17.30
2023-11-24T18:26:01.348Z,27.20
2023-11-24T18:28:30.118Z,85.20
2023-11-24T18:30:59.186Z,19.30
2023-11-24T18:33:27.924Z,17.20
2023-11-24T18:35:56.726Z,17.20
2023-11-24T18:38:26.497Z,32.20
2023-11-24T18:40:58.823Z,39.00
2023-11-24T18:43:36.733Z,51.30
2023-11-24T18:46:09.101Z,32.10
2023-11-24T18:48:38.083Z,28.10
2023-11-24T18:51:07.593Z,19.60
2023-11-24T18:53:35.936Z,29.10
2023-11-24T18:56:05.357Z,21.50
2023-11-24T18:58:34.151Z,14.20
2023-11-24T19:01:02.572Z,15.20
2023-11-24T19:03:32.660Z,18.40
2023-11-24T19:06:01.114Z,22.20
2023-11-24T19:08:29.903Z,18.70
2023-11-24T19:10:59.312Z,22.60
2023-11-24T19:13:27.902Z,33.80
2023-11-24T19:15:57.002Z,18.70
2023-11-24T19:18:25.566Z,15.80
2023-11-24T19:20:57.139Z,13.80
2023-11-24T19:23:26.118Z,13.10
2023-11-24T19:25:54.392Z,15.50
2023-11-24T19:28:22.817Z,15.20
2023-11-24T19:30:53.723Z,13.20
2023-11-24T19:33:22.499Z,13.80
2023-11-24T19:35:50.773Z,12.70
2023-11-24T19:38:19.262Z,11.20
2023-11-24T19:40:47.735Z,14.10
2023-11-24T19:43:16.857Z,10.60
2023-11-24T19:45:46.070Z,14.70
2023-11-24T19:48:15.741Z,13.10
2023-11-24T19:50:44.015Z,16.00
2023-11-24T19:53:13.631Z,15.50
2023-11-24T20:00:40.044Z,16.10
2023-11-24T20:03:08.506Z,15.80
2023-11-24T20:05:37.190Z,13.80
2023-11-24T20:08:06.267Z,13.40
2023-11-24T20:10:34.685Z,15.80
2023-11-24T20:13:04.937Z,15.50
2023-11-24T20:15:33.745Z,12.60
2023-11-24T20:18:03.937Z,14.80
2023-11-24T20:20:32.451Z,20.90
2023-11-24T20:23:00.732Z,15.50
2023-11-24T20:25:32.338Z,17.70
2023-11-24T20:28:01.775Z,20.30
2023-11-24T20:30:30.367Z,19.30
2023-11-24T20:32:58.672Z,20.30
2023-11-24T20:35:27.435Z,19.60
2023-11-24T20:37:55.711Z,22.40
2023-11-24T20:40:26.124Z,30.30
2023-11-24T20:42:54.644Z,29.10
2023-11-24T20:45:23.014Z,27.70
2023-11-24T20:47:51.503Z,21.10
2023-11-24T20:50:20.218Z,26.80
2023-11-24T20:52:49.979Z,41.50
2023-11-24T20:55:18.843Z,47.40
2023-11-24T20:57:48.098Z,19.90
2023-11-24T21:00:19.828Z,27.20
2023-11-24T21:02:49.412Z,37.70
2023-11-24T21:05:18.113Z,33.40
2023-11-24T21:07:46.408Z,26.00
2023-11-24T21:10:15.728Z,30.60
2023-11-24T21:12:44.384Z,33.50
2023-11-24T21:15:15.958Z,47.70
2023-11-24T21:17:44.787Z,41.80
2023-11-24T21:20:15.405Z,32.00
2023-11-24T21:22:43.712Z,30.80
2023-11-24T21:25:13.353Z,26.90
2023-11-24T21:27:41.818Z,20.00
2023-11-24T21:30:10.818Z,16.90
2023-11-24T21:32:39.364Z,15.80
2023-11-24T21:35:09.008Z,19.20
2023-11-24T21:37:37.395Z,29.80
2023-11-24T21:40:08.070Z,52.20
2023-11-24T21:42:36.914Z,26.70
2023-11-24T21:45:06.094Z,17.00
2023-11-24T21:47:34.844Z,14.90
2023-11-24T21:50:04.778Z,14.90
2023-11-24T21:52:34.220Z,14.10
2023-11-24T21:55:05.449Z,15.90
2023-11-24T21:57:34.553Z,13.60
2023-11-24T22:00:06.410Z,14.40
2023-11-24T22:02:40.850Z,15.80
2023-11-24T22:05:12.693Z,18.60
2023-11-24T22:07:42.335Z,21.90
2023-11-24T22:10:11.139Z,24.70
2023-11-24T22:12:39.690Z,22.00
2023-11-24T22:15:09.495Z,20.40
2023-11-24T22:17:38.316Z,16.30
2023-11-24T22:20:12.096Z,16.10
2023-11-24T22:22:41.179Z,16.20
2023-11-24T22:25:10.268Z,13.00
2023-11-24T22:27:38.672Z,13.00
2023-11-24T22:30:08.205Z,14.70
2023-11-24T22:32:37.057Z,14.50
2023-11-24T22:35:08.167Z,15.00
2023-11-24T22:37:36.621Z,14.60
2023-11-24T22:40:08.375Z,15.50
2023-11-24T22:42:36.911Z,14.60
2023-11-24T22:45:07.745Z,14.80
2023-11-24T22:47:39.566Z,12.00
2023-11-24T22:50:08.562Z,14.20
2023-11-24T22:52:37.711Z,13.50
2023-11-24T22:55:07.115Z,13.70
2023-11-24T22:57:35.787Z,14.50
2023-11-24T23:00:07.352Z,15.10
2023-11-24T23:02:36.009Z,19.50
2023-11-24T23:05:05.901Z,20.60
2023-11-24T23:07:34.339Z,22.50
2023-11-24T23:10:05.795Z,22.50
2023-11-24T23:12:34.459Z,24.80
2023-11-24T23:15:02.733Z,18.20
2023-11-24T23:17:31.015Z,16.70
2023-11-24T23:19:59.491Z,16.20
2023-11-24T23:22:34.965Z,15.60
2023-11-24T23:25:07.824Z,17.80
2023-11-24T23:27:37.018Z,16.90
2023-11-24T23:30:08.662Z,22.30
2023-11-24T23:32:37.231Z,20.20
2023-11-24T23:35:08.842Z,18.70
2023-11-24T23:37:37.255Z,16.20
2023-11-24T23:40:15.274Z,18.30
2023-11-24T23:42:45.933Z,18.80
2023-11-24T23:45:15.517Z,24.70
2023-11-24T23:47:44.290Z,21.30
2023-11-24T23:50:14.115Z,17.20
2023-11-24T23:52:43.542Z,17.10
2023-11-24T23:55:14.427Z,17.40
2023-11-24T23:57:43.267Z,17.00
